sensor_id;sensor_type;location;lat;lon;timestamp;P1;durP1;ratioP1;P2;durP2;ratioP2
9524;SDS011;15940;48.734;9.112;2024-02-28T00:02:11;17.40;;;12.87;;
9524;SDS011;15940;48.734;9.112;2024-02-28T00:04:39;18.13;;;13.20;;
9524;SDS011;15940;48.734;9.112;2024-02-28T00:07:06;16.30;;;12.40;;
9524;SDS011;15940;48.734;9.112;2024-02-28T00:09:33;18.77;;;12.83;;
9524;SDS011;15940;48.734;9.112;2024-02-28T00:12:00;17.17;;;12.87;;
9524;SDS011;15940;48.734;9.112;2024-02-28T00:14:27;18.33;;;13.00;;
9524;SDS011;15940;48.734;9.112;2024-02-28T00:16:54;17.40;;;13.33;;
9524;SDS011;15940;48.734;9.112;2024-02-28T00:19:22;15.83;;;12.73;;
9524;SDS011;15940;48.734;9.112;2024-02-28T00:21:50;18.17;;;13.70;;
9524;SDS011;15940;48.734;9.112;2024-02-28T00:24:17;18.37;;;12.80;;
9524;SDS011;15940;48.734;9.112;2024-02-28T00:26:44;19.03;;;13.47;;
9524;SDS011;15940;48.734;9.112;2024-02-28T00:29:11;19.53;;;13.87;;
9524;SDS011;15940;48.734;9.112;2024-02-28T00:31:38;17.97;;;13.63;;
9524;SDS011;15940;48.734;9.112;2024-02-28T00:34:05;16.87;;;12.70;;
9524;SDS011;15940;48.734;9.112;2024-02-28T00:36:35;17.13;;;12.47;;
9524;SDS011;15940;48.734;9.112;2024-02-28T00:39:02;21.30;;;13.70;;
9524;SDS011;15940;48.734;9.112;2024-02-28T00:41:29;16.17;;;12.73;;
9524;SDS011;15940;48.734;9.112;2024-02-28T00:43:56;17.17;;;13.57;;
9524;SDS011;15940;48.734;9.112;2024-02-28T00:46:22;17.17;;;12.63;;
9524;SDS011;15940;48.734;9.112;2024-02-28T00:48:49;18.73;;;12.83;;
9524;SDS011;15940;48.734;9.112;2024-02-28T00:51:16;18.83;;;13.33;;
9524;SDS011;15940;48.734;9.112;2024-02-28T00:53:44;18.33;;;13.47;;
9524;SDS011;15940;48.734;9.112;2024-02-28T00:56:11;28.43;;;18.10;;
9524;SDS011;15940;48.734;9.112;2024-02-28T00:58:38;30.47;;;20.90;;
9524;SDS011;15940;48.734;9.112;2024-02-28T01:01:05;26.13;;;17.87;;
9524;SDS011;15940;48.734;9.112;2024-02-28T01:03:33;27.03;;;18.37;;
9524;SDS011;15940;48.734;9.112;2024-02-28T01:06:00;28.50;;;19.23;;
9524;SDS011;15940;48.734;9.112;2024-02-28T01:08:28;32.30;;;21.47;;
9524;SDS011;15940;48.734;9.112;2024-02-28T01:10:57;28.77;;;19.57;;
9524;SDS011;15940;48.734;9.112;2024-02-28T01:13:24;23.43;;;16.57;;
9524;SDS011;15940;48.734;9.112;2024-02-28T01:15:51;23.33;;;15.07;;
9524;SDS011;15940;48.734;9.112;2024-02-28T01:18:19;21.13;;;14.47;;
9524;SDS011;15940;48.734;9.112;2024-02-28T01:20:46;21.40;;;15.17;;
9524;SDS011;15940;48.734;9.112;2024-02-28T01:23:12;22.83;;;15.37;;
9524;SDS011;15940;48.734;9.112;2024-02-28T01:25:39;18.53;;;14.13;;
9524;SDS011;15940;48.734;9.112;2024-02-28T01:28:08;20.20;;;14.60;;
9524;SDS011;15940;48.734;9.112;2024-02-28T01:30:34;21.37;;;14.90;;
9524;SDS011;15940;48.734;9.112;2024-02-28T01:33:01;19.47;;;14.37;;
9524;SDS011;15940;48.734;9.112;2024-02-28T01:35:29;22.57;;;14.87;;
9524;SDS011;15940;48.734;9.112;2024-02-28T01:37:55;21.63;;;14.70;;
9524;SDS011;15940;48.734;9.112;2024-02-28T01:40:22;20.60;;;14.50;;
9524;SDS011;15940;48.734;9.112;2024-02-28T01:42:49;18.87;;;14.00;;
9524;SDS011;15940;48.734;9.112;2024-02-28T01:45:18;20.20;;;14.23;;
9524;SDS011;15940;48.734;9.112;2024-02-28T01:47:45;18.70;;;13.77;;
9524;SDS011;15940;48.734;9.112;2024-02-28T01:50:12;20.13;;;13.97;;
9524;SDS011;15940;48.734;9.112;2024-02-28T01:52:39;19.13;;;13.83;;
9524;SDS011;15940;48.734;9.112;2024-02-28T01:55:07;18.50;;;13.80;;
9524;SDS011;15940;48.734;9.112;2024-02-28T01:57:35;20.10;;;14.43;;
9524;SDS011;15940;48.734;9.112;2024-02-28T02:00:04;21.97;;;14.17;;
9524;SDS011;15940;48.734;9.112;2024-02-28T02:02:34;21.40;;;14.77;;
9524;SDS011;15940;48.734;9.112;2024-02-28T02:05:01;21.17;;;14.40;;
9524;SDS011;15940;48.734;9.112;2024-02-28T02:07:29;20.77;;;14.73;;
9524;SDS011;15940;48.734;9.112;2024-02-28T02:09:57;20.47;;;14.70;;
9524;SDS011;15940;48.734;9.112;2024-02-28T02:12:24;22.63;;;14.50;;
9524;SDS011;15940;48.734;9.112;2024-02-28T02:14:50;20.53;;;14.90;;
9524;SDS011;15940;48.734;9.112;2024-02-28T02:17:17;21.70;;;15.03;;
9524;SDS011;15940;48.734;9.112;2024-02-28T02:19:46;22.37;;;15.77;;
9524;SDS011;15940;48.734;9.112;2024-02-28T02:22:13;23.30;;;14.80;;
9524;SDS011;15940;48.734;9.112;2024-02-28T02:24:41;20.80;;;15.03;;
9524;SDS011;15940;48.734;9.112;2024-02-28T02:27:08;27.50;;;15.50;;
9524;SDS011;15940;48.734;9.112;2024-02-28T02:29:35;20.77;;;15.00;;
9524;SDS011;15940;48.734;9.112;2024-02-28T02:32:02;25.50;;;15.13;;
9524;SDS011;15940;48.734;9.112;2024-02-28T02:34:29;21.80;;;14.33;;
9524;SDS011;15940;48.734;9.112;2024-02-28T02:36:57;21.07;;;14.70;;
9524;SDS011;15940;48.734;9.112;2024-02-28T02:39:23;20.27;;;15.07;;
9524;SDS011;15940;48.734;9.112;2024-02-28T02:41:52;20.90;;;15.10;;
9524;SDS011;15940;48.734;9.112;2024-02-28T02:44:19;19.57;;;14.67;;
9524;SDS011;15940;48.734;9.112;2024-02-28T02:46:45;20.37;;;14.67;;
9524;SDS011;15940;48.734;9.112;2024-02-28T02:49:13;19.90;;;14.27;;
9524;SDS011;15940;48.734;9.112;2024-02-28T02:51:40;19.00;;;13.80;;
9524;SDS011;15940;48.734;9.112;2024-02-28T02:54:08;21.63;;;14.33;;
9524;SDS011;15940;48.734;9.112;2024-02-28T02:56:35;22.47;;;14.63;;
9524;SDS011;15940;48.734;9.112;2024-02-28T02:59:03;21.30;;;15.50;;
9524;SDS011;15940;48.734;9.112;2024-02-28T03:01:30;22.73;;;15.67;;
9524;SDS011;15940;48.734;9.112;2024-02-28T03:03:57;21.63;;;14.63;;
9524;SDS011;15940;48.734;9.112;2024-02-28T03:06:24;22.03;;;14.93;;
9524;SDS011;15940;48.734;9.112;2024-02-28T03:08:51;21.37;;;14.70;;
9524;SDS011;15940;48.734;9.112;2024-02-28T03:11:18;22.30;;;14.97;;
9524;SDS011;15940;48.734;9.112;2024-02-28T03:13:45;24.10;;;15.03;;
9524;SDS011;15940;48.734;9.112;2024-02-28T03:16:13;22.30;;;15.50;;
9524;SDS011;15940;48.734;9.112;2024-02-28T03:18:40;23.07;;;15.83;;
9524;SDS011;15940;48.734;9.112;2024-02-28T03:21:07;22.60;;;15.73;;
9524;SDS011;15940;48.734;9.112;2024-02-28T03:23:34;21.47;;;16.00;;
9524;SDS011;15940;48.734;9.112;2024-02-28T03:26:01;22.97;;;15.27;;
9524;SDS011;15940;48.734;9.112;2024-02-28T03:28:28;21.50;;;14.27;;
9524;SDS011;15940;48.734;9.112;2024-02-28T03:30:55;22.43;;;15.20;;
9524;SDS011;15940;48.734;9.112;2024-02-28T03:33:24;20.67;;;15.40;;
9524;SDS011;15940;48.734;9.112;2024-02-28T03:35:51;20.83;;;14.43;;
9524;SDS011;15940;48.734;9.112;2024-02-28T03:38:18;20.77;;;15.33;;
9524;SDS011;15940;48.734;9.112;2024-02-28T03:40:44;22.97;;;15.30;;
9524;SDS011;15940;48.734;9.112;2024-02-28T03:43:11;23.63;;;15.57;;
9524;SDS011;15940;48.734;9.112;2024-02-28T03:45:39;21.63;;;15.10;;
9524;SDS011;15940;48.734;9.112;2024-02-28T03:48:06;23.13;;;15.47;;
9524;SDS011;15940;48.734;9.112;2024-02-28T03:50:34;21.33;;;15.43;;
9524;SDS011;15940;48.734;9.112;2024-02-28T03:53:02;23.03;;;15.60;;
9524;SDS011;15940;48.734;9.112;2024-02-28T03:55:30;21.53;;;15.70;;
9524;SDS011;15940;48.734;9.112;2024-02-28T03:57:56;23.13;;;16.50;;
9524;SDS011;15940;48.734;9.112;2024-02-28T04:00:24;21.80;;;15.50;;
9524;SDS011;15940;48.734;9.112;2024-02-28T04:02:51;23.43;;;16.07;;
9524;SDS011;15940;48.734;9.112;2024-02-28T04:05:18;22.40;;;16.07;;
9524;SDS011;15940;48.734;9.112;2024-02-28T04:07:46;22.47;;;15.93;;
9524;SDS011;15940;48.734;9.112;2024-02-28T04:10:12;23.77;;;15.93;;
9524;SDS011;15940;48.734;9.112;2024-02-28T04:12:42;22.80;;;15.57;;
9524;SDS011;15940;48.734;9.112;2024-02-28T04:15:10;22.27;;;15.10;;
9524;SDS011;15940;48.734;9.112;2024-02-28T04:17:37;21.60;;;15.37;;
9524;SDS011;15940;48.734;9.112;2024-02-28T04:20:07;22.17;;;15.20;;
9524;SDS011;15940;48.734;9.112;2024-02-28T04:22:35;23.07;;;15.27;;
9524;SDS011;15940;48.734;9.112;2024-02-28T04:25:04;21.53;;;15.77;;
9524;SDS011;15940;48.734;9.112;2024-02-28T04:27:32;23.80;;;15.77;;
9524;SDS011;15940;48.734;9.112;2024-02-28T04:29:59;22.20;;;15.10;;
9524;SDS011;15940;48.734;9.112;2024-02-28T04:32:26;25.10;;;16.33;;
9524;SDS011;15940;48.734;9.112;2024-02-28T04:34:53;24.53;;;16.03;;
9524;SDS011;15940;48.734;9.112;2024-02-28T04:37:20;22.00;;;15.53;;
9524;SDS011;15940;48.734;9.112;2024-02-28T04:39:48;24.90;;;17.00;;
9524;SDS011;15940;48.734;9.112;2024-02-28T04:42:16;25.70;;;16.33;;
9524;SDS011;15940;48.734;9.112;2024-02-28T04:44:43;27.10;;;16.00;;
9524;SDS011;15940;48.734;9.112;2024-02-28T04:47:10;21.20;;;15.47;;
9524;SDS011;15940;48.734;9.112;2024-02-28T04:49:37;24.63;;;16.07;;
9524;SDS011;15940;48.734;9.112;2024-02-28T04:52:05;23.53;;;15.37;;
9524;SDS011;15940;48.734;9.112;2024-02-28T04:54:32;25.17;;;15.47;;
9524;SDS011;15940;48.734;9.112;2024-02-28T04:56:59;21.47;;;15.13;;
9524;SDS011;15940;48.734;9.112;2024-02-28T04:59:29;24.50;;;16.23;;
9524;SDS011;15940;48.734;9.112;2024-02-28T05:01:56;27.50;;;15.40;;
9524;SDS011;15940;48.734;9.112;2024-02-28T05:04:23;20.93;;;15.00;;
9524;SDS011;15940;48.734;9.112;2024-02-28T05:06:50;22.87;;;15.13;;
9524;SDS011;15940;48.734;9.112;2024-02-28T05:09:17;20.40;;;14.43;;
9524;SDS011;15940;48.734;9.112;2024-02-28T05:11:44;20.63;;;14.33;;
9524;SDS011;15940;48.734;9.112;2024-02-28T05:14:11;21.53;;;14.77;;
9524;SDS011;15940;48.734;9.112;2024-02-28T05:16:39;22.60;;;15.93;;
9524;SDS011;15940;48.734;9.112;2024-02-28T05:19:06;22.87;;;14.90;;
9524;SDS011;15940;48.734;9.112;2024-02-28T05:21:39;23.07;;;15.37;;
9524;SDS011;15940;48.734;9.112;2024-02-28T05:24:07;22.30;;;15.87;;
9524;SDS011;15940;48.734;9.112;2024-02-28T05:26:34;22.30;;;15.33;;
9524;SDS011;15940;48.734;9.112;2024-02-28T05:29:02;22.43;;;15.20;;
9524;SDS011;15940;48.734;9.112;2024-02-28T05:31:30;22.40;;;15.70;;
9524;SDS011;15940;48.734;9.112;2024-02-28T05:33:59;20.70;;;15.13;;
9524;SDS011;15940;48.734;9.112;2024-02-28T05:36:27;25.33;;;16.80;;
9524;SDS011;15940;48.734;9.112;2024-02-28T05:38:56;20.77;;;15.00;;
9524;SDS011;15940;48.734;9.112;2024-02-28T05:41:24;23.57;;;15.63;;
9524;SDS011;15940;48.734;9.112;2024-02-28T05:43:51;22.20;;;15.37;;
9524;SDS011;15940;48.734;9.112;2024-02-28T05:46:18;23.60;;;16.50;;
9524;SDS011;15940;48.734;9.112;2024-02-28T05:48:47;23.30;;;15.57;;
9524;SDS011;15940;48.734;9.112;2024-02-28T05:51:15;29.93;;;17.30;;
9524;SDS011;15940;48.734;9.112;2024-02-28T05:53:42;20.13;;;15.13;;
9524;SDS011;15940;48.734;9.112;2024-02-28T05:56:10;19.93;;;15.00;;
9524;SDS011;15940;48.734;9.112;2024-02-28T05:58:40;21.23;;;15.53;;
9524;SDS011;15940;48.734;9.112;2024-02-28T06:01:08;21.87;;;15.63;;
9524;SDS011;15940;48.734;9.112;2024-02-28T06:03:35;22.07;;;15.77;;
9524;SDS011;15940;48.734;9.112;2024-02-28T06:06:02;21.10;;;15.43;;
9524;SDS011;15940;48.734;9.112;2024-02-28T06:08:32;24.20;;;16.13;;
9524;SDS011;15940;48.734;9.112;2024-02-28T06:11:00;23.13;;;15.90;;
9524;SDS011;15940;48.734;9.112;2024-02-28T06:13:27;21.30;;;15.77;;
9524;SDS011;15940;48.734;9.112;2024-02-28T06:15:54;21.63;;;15.93;;
9524;SDS011;15940;48.734;9.112;2024-02-28T06:18:21;23.23;;;15.27;;
9524;SDS011;15940;48.734;9.112;2024-02-28T06:20:51;19.73;;;14.80;;
9524;SDS011;15940;48.734;9.112;2024-02-28T06:23:19;22.77;;;16.37;;
9524;SDS011;15940;48.734;9.112;2024-02-28T06:25:47;22.27;;;16.23;;
9524;SDS011;15940;48.734;9.112;2024-02-28T06:28:14;20.10;;;15.70;;
9524;SDS011;15940;48.734;9.112;2024-02-28T06:30:42;19.23;;;15.20;;
9524;SDS011;15940;48.734;9.112;2024-02-28T06:33:11;24.03;;;16.37;;
9524;SDS011;15940;48.734;9.112;2024-02-28T06:35:38;19.97;;;15.57;;
9524;SDS011;15940;48.734;9.112;2024-02-28T06:38:04;20.83;;;15.53;;
9524;SDS011;15940;48.734;9.112;2024-02-28T06:40:32;19.40;;;15.43;;
9524;SDS011;15940;48.734;9.112;2024-02-28T06:43:01;18.60;;;14.63;;
9524;SDS011;15940;48.734;9.112;2024-02-28T06:45:28;21.60;;;15.23;;
9524;SDS011;15940;48.734;9.112;2024-02-28T06:47:54;22.67;;;15.67;;
9524;SDS011;15940;48.734;9.112;2024-02-28T06:50:21;21.57;;;16.03;;
9524;SDS011;15940;48.734;9.112;2024-02-28T06:52:48;20.20;;;15.37;;
9524;SDS011;15940;48.734;9.112;2024-02-28T06:55:18;23.53;;;15.73;;
9524;SDS011;15940;48.734;9.112;2024-02-28T06:57:46;22.80;;;15.97;;
9524;SDS011;15940;48.734;9.112;2024-02-28T07:00:14;22.53;;;15.47;;
9524;SDS011;15940;48.734;9.112;2024-02-28T07:02:43;20.77;;;15.00;;
9524;SDS011;15940;48.734;9.112;2024-02-28T07:05:10;22.67;;;16.00;;
9524;SDS011;15940;48.734;9.112;2024-02-28T07:07:39;23.13;;;14.10;;
9524;SDS011;15940;48.734;9.112;2024-02-28T07:10:06;22.93;;;15.13;;
9524;SDS011;15940;48.734;9.112;2024-02-28T07:12:33;21.43;;;14.53;;
9524;SDS011;15940;48.734;9.112;2024-02-28T07:15:00;19.13;;;14.17;;
9524;SDS011;15940;48.734;9.112;2024-02-28T07:17:29;18.77;;;14.00;;
9524;SDS011;15940;48.734;9.112;2024-02-28T07:19:55;21.00;;;15.00;;
9524;SDS011;15940;48.734;9.112;2024-02-28T07:22:22;19.77;;;14.20;;
9524;SDS011;15940;48.734;9.112;2024-02-28T07:24:49;21.00;;;15.37;;
9524;SDS011;15940;48.734;9.112;2024-02-28T07:27:16;19.63;;;15.13;;
9524;SDS011;15940;48.734;9.112;2024-02-28T07:29:43;19.67;;;14.50;;
9524;SDS011;15940;48.734;9.112;2024-02-28T07:32:10;20.97;;;15.37;;
9524;SDS011;15940;48.734;9.112;2024-02-28T07:34:38;19.77;;;15.07;;
9524;SDS011;15940;48.734;9.112;2024-02-28T07:37:05;20.77;;;15.90;;
9524;SDS011;15940;48.734;9.112;2024-02-28T07:39:32;21.10;;;14.23;;
9524;SDS011;15940;48.734;9.112;2024-02-28T07:41:59;22.73;;;15.00;;
9524;SDS011;15940;48.734;9.112;2024-02-28T07:44:26;20.60;;;14.33;;
9524;SDS011;15940;48.734;9.112;2024-02-28T07:46:55;20.57;;;14.67;;
9524;SDS011;15940;48.734;9.112;2024-02-28T07:49:23;20.83;;;14.50;;
9524;SDS011;15940;48.734;9.112;2024-02-28T07:51:51;18.80;;;14.73;;
9524;SDS011;15940;48.734;9.112;2024-02-28T07:54:18;20.83;;;14.27;;
9524;SDS011;15940;48.734;9.112;2024-02-28T07:56:45;20.53;;;14.87;;
9524;SDS011;15940;48.734;9.112;2024-02-28T07:59:12;19.40;;;14.03;;
9524;SDS011;15940;48.734;9.112;2024-02-28T08:01:39;20.43;;;15.20;;
9524;SDS011;15940;48.734;9.112;2024-02-28T08:04:06;19.03;;;13.80;;
9524;SDS011;15940;48.734;9.112;2024-02-28T08:06:33;19.60;;;14.23;;
9524;SDS011;15940;48.734;9.112;2024-02-28T08:09:01;22.00;;;15.43;;
9524;SDS011;15940;48.734;9.112;2024-02-28T08:11:29;19.50;;;14.43;;
9524;SDS011;15940;48.734;9.112;2024-02-28T08:13:56;20.47;;;14.27;;
9524;SDS011;15940;48.734;9.112;2024-02-28T08:16:23;21.17;;;14.67;;
9524;SDS011;15940;48.734;9.112;2024-02-28T08:18:50;18.97;;;14.03;;
9524;SDS011;15940;48.734;9.112;2024-02-28T08:21:16;17.37;;;13.57;;
9524;SDS011;15940;48.734;9.112;2024-02-28T08:23:45;22.87;;;13.70;;
9524;SDS011;15940;48.734;9.112;2024-02-28T08:26:14;18.73;;;14.03;;
9524;SDS011;15940;48.734;9.112;2024-02-28T08:28:40;17.27;;;12.93;;
9524;SDS011;15940;48.734;9.112;2024-02-28T08:31:07;19.20;;;13.23;;
9524;SDS011;15940;48.734;9.112;2024-02-28T08:33:34;14.63;;;11.40;;
9524;SDS011;15940;48.734;9.112;2024-02-28T08:36:01;13.17;;;10.37;;
9524;SDS011;15940;48.734;9.112;2024-02-28T08:38:29;13.77;;;11.17;;
9524;SDS011;15940;48.734;9.112;2024-02-28T08:40:55;14.40;;;12.03;;
9524;SDS011;15940;48.734;9.112;2024-02-28T08:43:24;16.27;;;12.57;;
9524;SDS011;15940;48.734;9.112;2024-02-28T08:45:51;18.27;;;12.87;;
9524;SDS011;15940;48.734;9.112;2024-02-28T08:48:19;17.13;;;12.63;;
9524;SDS011;15940;48.734;9.112;2024-02-28T08:50:46;18.73;;;12.50;;
9524;SDS011;15940;48.734;9.112;2024-02-28T08:53:13;14.57;;;11.93;;
9524;SDS011;15940;48.734;9.112;2024-02-28T08:55:40;16.40;;;12.47;;
9524;SDS011;15940;48.734;9.112;2024-02-28T08:58:06;25.87;;;14.10;;
9524;SDS011;15940;48.734;9.112;2024-02-28T09:00:35;15.90;;;11.77;;
9524;SDS011;15940;48.734;9.112;2024-02-28T09:03:02;16.00;;;12.40;;
9524;SDS011;15940;48.734;9.112;2024-02-28T09:05:30;16.73;;;12.57;;
9524;SDS011;15940;48.734;9.112;2024-02-28T09:07:57;18.97;;;13.67;;
9524;SDS011;15940;48.734;9.112;2024-02-28T09:10:24;18.90;;;14.60;;
9524;SDS011;15940;48.734;9.112;2024-02-28T09:12:51;18.27;;;13.80;;
9524;SDS011;15940;48.734;9.112;2024-02-28T09:15:18;18.17;;;14.27;;
9524;SDS011;15940;48.734;9.112;2024-02-28T09:17:47;21.63;;;15.97;;
9524;SDS011;15940;48.734;9.112;2024-02-28T09:20:14;20.93;;;15.80;;
9524;SDS011;15940;48.734;9.112;2024-02-28T09:22:42;22.20;;;16.13;;
9524;SDS011;15940;48.734;9.112;2024-02-28T09:25:09;20.67;;;15.97;;
9524;SDS011;15940;48.734;9.112;2024-02-28T09:27:36;20.70;;;16.10;;
9524;SDS011;15940;48.734;9.112;2024-02-28T09:30:03;22.60;;;16.20;;
9524;SDS011;15940;48.734;9.112;2024-02-28T09:32:32;22.70;;;16.00;;
9524;SDS011;15940;48.734;9.112;2024-02-28T09:35:00;22.50;;;15.37;;
9524;SDS011;15940;48.734;9.112;2024-02-28T09:37:29;21.60;;;16.13;;
9524;SDS011;15940;48.734;9.112;2024-02-28T09:39:56;22.23;;;16.13;;
9524;SDS011;15940;48.734;9.112;2024-02-28T09:42:23;21.47;;;17.00;;
9524;SDS011;15940;48.734;9.112;2024-02-28T09:44:50;20.77;;;15.17;;
9524;SDS011;15940;48.734;9.112;2024-02-28T09:47:17;22.03;;;16.40;;
9524;SDS011;15940;48.734;9.112;2024-02-28T09:49:44;23.47;;;16.40;;
9524;SDS011;15940;48.734;9.112;2024-02-28T09:52:17;22.03;;;15.27;;
9524;SDS011;15940;48.734;9.112;2024-02-28T09:54:44;21.70;;;15.60;;
9524;SDS011;15940;48.734;9.112;2024-02-28T09:57:11;22.33;;;15.43;;
9524;SDS011;15940;48.734;9.112;2024-02-28T09:59:39;21.43;;;15.50;;
9524;SDS011;15940;48.734;9.112;2024-02-28T10:02:07;19.73;;;14.03;;
9524;SDS011;15940;48.734;9.112;2024-02-28T10:04:37;20.57;;;14.67;;
9524;SDS011;15940;48.734;9.112;2024-02-28T10:07:11;23.37;;;16.00;;
9524;SDS011;15940;48.734;9.112;2024-02-28T10:09:40;19.20;;;14.10;;
9524;SDS011;15940;48.734;9.112;2024-02-28T10:12:07;19.40;;;13.87;;
9524;SDS011;15940;48.734;9.112;2024-02-28T10:14:35;18.07;;;13.10;;
9524;SDS011;15940;48.734;9.112;2024-02-28T10:17:03;18.27;;;12.43;;
9524;SDS011;15940;48.734;9.112;2024-02-28T10:19:30;22.20;;;13.43;;
9524;SDS011;15940;48.734;9.112;2024-02-28T10:21:57;17.43;;;13.60;;
9524;SDS011;15940;48.734;9.112;2024-02-28T10:24:25;16.50;;;13.20;;
9524;SDS011;15940;48.734;9.112;2024-02-28T10:26:53;19.30;;;13.47;;
9524;SDS011;15940;48.734;9.112;2024-02-28T10:29:22;18.90;;;13.03;;
9524;SDS011;15940;48.734;9.112;2024-02-28T10:31:49;16.90;;;13.33;;
9524;SDS011;15940;48.734;9.112;2024-02-28T10:34:17;16.90;;;12.90;;
9524;SDS011;15940;48.734;9.112;2024-02-28T10:36:43;19.37;;;14.30;;
9524;SDS011;15940;48.734;9.112;2024-02-28T10:39:11;18.57;;;13.37;;
9524;SDS011;15940;48.734;9.112;2024-02-28T10:41:39;19.10;;;13.67;;
9524;SDS011;15940;48.734;9.112;2024-02-28T10:44:09;19.03;;;13.57;;
9524;SDS011;15940;48.734;9.112;2024-02-28T10:46:37;18.03;;;13.67;;
9524;SDS011;15940;48.734;9.112;2024-02-28T10:49:04;17.17;;;12.27;;
9524;SDS011;15940;48.734;9.112;2024-02-28T10:51:33;16.23;;;12.83;;
9524;SDS011;15940;48.734;9.112;2024-02-28T10:54:06;17.37;;;12.63;;
9524;SDS011;15940;48.734;9.112;2024-02-28T10:56:36;21.20;;;14.20;;
9524;SDS011;15940;48.734;9.112;2024-02-28T10:59:05;19.00;;;13.90;;
9524;SDS011;15940;48.734;9.112;2024-02-28T11:01:35;17.67;;;13.90;;
9524;SDS011;15940;48.734;9.112;2024-02-28T11:04:06;17.80;;;13.40;;
9524;SDS011;15940;48.734;9.112;2024-02-28T11:06:34;20.17;;;13.53;;
9524;SDS011;15940;48.734;9.112;2024-02-28T11:09:02;16.87;;;13.57;;
9524;SDS011;15940;48.734;9.112;2024-02-28T11:11:30;19.03;;;13.87;;
9524;SDS011;15940;48.734;9.112;2024-02-28T11:13:58;19.27;;;14.07;;
9524;SDS011;15940;48.734;9.112;2024-02-28T11:16:28;19.10;;;14.13;;
9524;SDS011;15940;48.734;9.112;2024-02-28T11:18:56;16.70;;;12.50;;
9524;SDS011;15940;48.734;9.112;2024-02-28T11:21:24;15.87;;;12.27;;
9524;SDS011;15940;48.734;9.112;2024-02-28T11:23:52;17.40;;;13.07;;
9524;SDS011;15940;48.734;9.112;2024-02-28T11:26:22;17.77;;;13.07;;
9524;SDS011;15940;48.734;9.112;2024-02-28T11:28:50;18.60;;;13.50;;
9524;SDS011;15940;48.734;9.112;2024-02-28T11:31:17;16.43;;;13.10;;
9524;SDS011;15940;48.734;9.112;2024-02-28T11:33:45;16.83;;;13.17;;
9524;SDS011;15940;48.734;9.112;2024-02-28T11:36:12;16.37;;;12.77;;
9524;SDS011;15940;48.734;9.112;2024-02-28T11:38:39;17.20;;;12.63;;
9524;SDS011;15940;48.734;9.112;2024-02-28T11:41:06;16.63;;;12.77;;
9524;SDS011;15940;48.734;9.112;2024-02-28T11:43:34;17.80;;;13.53;;
9524;SDS011;15940;48.734;9.112;2024-02-28T11:46:01;17.20;;;12.87;;
9524;SDS011;15940;48.734;9.112;2024-02-28T11:48:33;18.30;;;12.43;;
9524;SDS011;15940;48.734;9.112;2024-02-28T11:51:02;17.40;;;13.00;;
9524;SDS011;15940;48.734;9.112;2024-02-28T11:53:28;17.63;;;11.50;;
9524;SDS011;15940;48.734;9.112;2024-02-28T11:55:55;15.30;;;12.20;;
9524;SDS011;15940;48.734;9.112;2024-02-28T11:58:22;18.70;;;12.60;;
9524;SDS011;15940;48.734;9.112;2024-02-28T12:00:49;15.70;;;11.87;;
9524;SDS011;15940;48.734;9.112;2024-02-28T12:03:20;14.73;;;11.63;;
9524;SDS011;15940;48.734;9.112;2024-02-28T12:05:48;17.87;;;13.23;;
9524;SDS011;15940;48.734;9.112;2024-02-28T12:08:17;17.70;;;12.73;;
9524;SDS011;15940;48.734;9.112;2024-02-28T12:10:45;21.43;;;14.97;;
9524;SDS011;15940;48.734;9.112;2024-02-28T12:13:15;20.07;;;14.67;;
9524;SDS011;15940;48.734;9.112;2024-02-28T12:15:43;20.50;;;14.10;;
9524;SDS011;15940;48.734;9.112;2024-02-28T12:18:11;17.60;;;13.93;;
9524;SDS011;15940;48.734;9.112;2024-02-28T12:20:40;18.73;;;14.33;;
9524;SDS011;15940;48.734;9.112;2024-02-28T12:23:07;18.17;;;14.40;;
9524;SDS011;15940;48.734;9.112;2024-02-28T12:25:35;16.77;;;12.83;;
9524;SDS011;15940;48.734;9.112;2024-02-28T12:28:03;16.53;;;13.33;;
9524;SDS011;15940;48.734;9.112;2024-02-28T12:30:38;18.13;;;13.53;;
9524;SDS011;15940;48.734;9.112;2024-02-28T12:33:07;21.33;;;13.77;;
9524;SDS011;15940;48.734;9.112;2024-02-28T12:35:34;17.33;;;13.67;;
9524;SDS011;15940;48.734;9.112;2024-02-28T12:38:01;18.37;;;13.37;;
9524;SDS011;15940;48.734;9.112;2024-02-28T12:40:29;19.23;;;13.40;;
9524;SDS011;15940;48.734;9.112;2024-02-28T12:42:56;20.93;;;14.60;;
9524;SDS011;15940;48.734;9.112;2024-02-28T12:45:23;19.43;;;13.77;;
9524;SDS011;15940;48.734;9.112;2024-02-28T12:47:50;17.60;;;13.63;;
9524;SDS011;15940;48.734;9.112;2024-02-28T12:50:19;20.13;;;13.50;;
9524;SDS011;15940;48.734;9.112;2024-02-28T12:52:46;18.70;;;13.57;;
9524;SDS011;15940;48.734;9.112;2024-02-28T12:55:18;18.57;;;14.03;;
9524;SDS011;15940;48.734;9.112;2024-02-28T12:57:45;19.30;;;14.00;;
9524;SDS011;15940;48.734;9.112;2024-02-28T13:00:13;18.83;;;13.40;;
9524;SDS011;15940;48.734;9.112;2024-02-28T13:02:41;19.87;;;13.50;;
9524;SDS011;15940;48.734;9.112;2024-02-28T13:05:09;18.33;;;13.93;;
9524;SDS011;15940;48.734;9.112;2024-02-28T13:07:38;17.47;;;13.27;;
9524;SDS011;15940;48.734;9.112;2024-02-28T13:10:05;16.93;;;13.37;;
9524;SDS011;15940;48.734;9.112;2024-02-28T13:12:34;16.67;;;12.20;;
9524;SDS011;15940;48.734;9.112;2024-02-28T13:15:01;15.73;;;12.80;;
9524;SDS011;15940;48.734;9.112;2024-02-28T13:17:31;19.80;;;13.10;;
9524;SDS011;15940;48.734;9.112;2024-02-28T13:19:58;19.87;;;13.77;;
9524;SDS011;15940;48.734;9.112;2024-02-28T13:22:25;17.53;;;13.70;;
9524;SDS011;15940;48.734;9.112;2024-02-28T13:24:52;16.63;;;12.10;;
9524;SDS011;15940;48.734;9.112;2024-02-28T13:27:19;25.60;;;13.43;;
9524;SDS011;15940;48.734;9.112;2024-02-28T13:29:46;21.07;;;12.53;;
9524;SDS011;15940;48.734;9.112;2024-02-28T13:32:13;20.27;;;12.67;;
9524;SDS011;15940;48.734;9.112;2024-02-28T13:34:41;18.03;;;12.97;;
9524;SDS011;15940;48.734;9.112;2024-02-28T13:37:08;17.17;;;12.77;;
9524;SDS011;15940;48.734;9.112;2024-02-28T13:39:35;19.40;;;13.43;;
9524;SDS011;15940;48.734;9.112;2024-02-28T13:42:02;17.70;;;12.87;;
9524;SDS011;15940;48.734;9.112;2024-02-28T13:44:31;17.00;;;13.00;;
9524;SDS011;15940;48.734;9.112;2024-02-28T13:46:59;16.23;;;12.40;;
9524;SDS011;15940;48.734;9.112;2024-02-28T13:49:26;14.83;;;12.13;;
9524;SDS011;15940;48.734;9.112;2024-02-28T13:51:54;18.30;;;12.70;;
9524;SDS011;15940;48.734;9.112;2024-02-28T13:54:21;14.33;;;11.93;;
9524;SDS011;15940;48.734;9.112;2024-02-28T13:56:48;18.83;;;12.97;;
9524;SDS011;15940;48.734;9.112;2024-02-28T13:59:15;17.50;;;12.73;;
9524;SDS011;15940;48.734;9.112;2024-02-28T14:01:42;13.33;;;11.33;;
9524;SDS011;15940;48.734;9.112;2024-02-28T14:04:10;16.33;;;12.03;;
9524;SDS011;15940;48.734;9.112;2024-02-28T14:06:37;17.47;;;12.27;;
9524;SDS011;15940;48.734;9.112;2024-02-28T14:09:05;17.10;;;12.83;;
9524;SDS011;15940;48.734;9.112;2024-02-28T14:11:32;18.07;;;12.93;;
9524;SDS011;15940;48.734;9.112;2024-02-28T14:13:59;19.87;;;14.17;;
9524;SDS011;15940;48.734;9.112;2024-02-28T14:16:26;17.43;;;13.03;;
9524;SDS011;15940;48.734;9.112;2024-02-28T14:18:53;17.73;;;13.40;;
9524;SDS011;15940;48.734;9.112;2024-02-28T14:21:20;18.30;;;13.40;;
9524;SDS011;15940;48.734;9.112;2024-02-28T14:23:49;16.80;;;12.83;;
9524;SDS011;15940;48.734;9.112;2024-02-28T14:26:18;18.67;;;12.83;;
9524;SDS011;15940;48.734;9.112;2024-02-28T14:28:44;15.70;;;11.80;;
9524;SDS011;15940;48.734;9.112;2024-02-28T14:31:11;16.40;;;11.93;;
9524;SDS011;15940;48.734;9.112;2024-02-28T14:33:38;18.13;;;12.57;;
9524;SDS011;15940;48.734;9.112;2024-02-28T14:36:05;17.40;;;11.93;;